Louisville, Alabama
Current Conditions -  °F | °C
As of 3:22 PM on Sunday 23 Nov 2014 (Local Time) from KTOI Reporting Station
Broken Clouds Broken Clouds  
Wind Chill: 63°   Ceiling: 2300
Heat Index: 63°   Visibility: 10mi
Dew Point: 60°   Wind: 15mph
Humidity: 90%   Direction: 190°S
Pressure: 29.7"   Gusts: 24mph
Location:  31.78°N, 85.56°W
Report Text: KTOI 232122Z AUTO 19013G21KT 10SM BKN023 17/16 A2970 RMK AO2 RAE2056 P0000 T01720156
Loading
Personal Weather Stations






























Interactive Weather Map New forecast layout! Learn more

10-Day Weather Forecast

Advertisements
Track Severe Weather on mobile